Weather observations for the past three days for
Oberlin Municipal Airport
Imperial (Metric)
Date Time (cdt) Wind (mph) Vis. (mi.) Weather Sky Cond. Temperature (ºF) Relative Humidity Wind Chill (°F) Heat Index (°F) Pressure Precipitation (in)
Air Dwpt 6 hour altimeter (in) sea level (mb) 1 hr 3 hr 6 hr
Max. Min.
04 23:35 NE 26 G 33 10.00 Overcast and Windy OVC110 55.4 37.4 51% 29.79 0.0
04 23:15 NE 17 G 25 10.00 Mostly Cloudy BKN110 57.2 37.4 48% 29.79 0.0
04 22:55 NE 22 G 29 10.00 Partly Cloudy and Breezy SCT120 57.2 37.4 48% 29.79 0.0
04 22:35 NE 23 G 33 10.00 Partly Cloudy and Breezy SCT110 59 37.4 45% 29.78 0.0
04 22:15 NE 25 G 33 10.00 Mostly Cloudy and Breezy FEW100 BKN120 60.8 37.4 42% 29.79 0.0
04 21:55 NE 18 G 28 10.00 Partly Cloudy FEW025 SCT100 SCT120 62.6 35.6 37% 29.76 0.0
04 21:35 NE 22 G 28 10.00 Overcast and Breezy SCT060 BKN075 OVC110 62.6 35.6 37% 29.73 0.0
04 21:15 NE 23 G 26 10.00 Mostly Cloudy and Breezy BKN110 64.4 35.6 34% 29.75 0.0
04 20:55 NE 18 G 24 10.00 A Few Clouds FEW110 64.4 35.6 34% 29.73 0.0
04 20:35 NE 20 G 25 10.00 Fair CLR 66.2 35.6 32% 29.71 0.0
04 20:15 NE 16 G 23 10.00 Fair CLR 66.2 35.6 32% 29.7 0.0
04 19:55 NE 21 G 30 10.00 Fair and Breezy CLR 68 35.6 30% 29.68 0.0
04 19:35 NE 21 G 29 10.00 Fair and Breezy CLR 69.8 37.4 31% 29.67 0.0
04 19:15 NE 20 G 29 10.00 Fair CLR 71.6 39.2 31% 29.67 0.0
04 18:55 NE 22 G 29 10.00 Fair and Breezy CLR 71.6 39.2 85.3 72.3 31% 29.67 0.0
04 18:35 NE 21 G 33 10.00 Fair and Breezy CLR 73.4 39.2 29% 29.66 0.0
04 18:15 NE 24 G 35 10.00 Fair and Breezy CLR 75.2 39.2 27% 77 29.63 0.0
04 17:55 NE 23 G 30 10.00 Fair and Breezy CLR 77 39.2 26% 77 29.62 0.0
04 17:35 NE 23 G 31 10.00 Fair and Breezy CLR 78.8 39.2 24% 78 29.61 0.0
04 17:15 NE 21 G 29 10.00 Fair and Breezy CLR 80.6 39.2 23% 79 29.61 0.0
04 16:55 NE 24 G 29 10.00 Fair and Breezy CLR 84.2 37.4 19% 81 29.6 0.0
04 16:35 Vrbl 6 10.00 Fair CLR 84.2 30.2 14% 81 29.61 0.0
04 16:15 NE 9 10.00 Fair CLR 82.4 30.2 15% 80 29.61 0.0
04 15:55 NE 10 10.00 Fair CLR 84.2 30.2 14% 81 29.62 0.0
04 15:35 Vrbl 5 10.00 Fair CLR 82.4 28.4 14% 80 29.63 0.0
04 15:15 Vrbl 6 10.00 Fair CLR 82.4 30.2 15% 80 29.63 0.0
04 14:55 E 8 10.00 Fair CLR 82.4 30.2 15% 80 29.64 0.0
04 14:35 Vrbl 5 10.00 Fair CLR 80.6 28.4 15% 79 29.64 0.0
04 14:15 N 6 10.00 Fair CLR 80.6 28.4 15% 79 29.65 0.0
04 13:55 N 6 10.00 Fair CLR 80.6 28.4 15% 79 29.66 0.0
04 13:35 NE 9 10.00 Fair CLR 80.6 30.2 16% 79 29.66 0.0
04 13:15 NE 8 10.00 Fair CLR 80.6 32 17% 79 29.66 0.0
04 12:55 Vrbl 6 10.00 Fair CLR 80.6 32 80.1 42.1 17% 79 29.67 0.0
04 12:35 NE 9 10.00 Fair CLR 78.8 35.6 21% 78 29.67 0.0
04 12:15 Vrbl 7 10.00 Fair CLR 77 37.4 24% 77 29.68 0.0
04 11:55 E 9 10.00 Fair CLR 78.8 35.6 21% 78 29.68 0.0
04 11:35 NE 7 10.00 Fair CLR 78.8 39.2 24% 78 29.68 0.0
04 11:15 N 7 10.00 Fair CLR 77 39.2 26% 77 29.68 0.0
04 10:55 N 5 10.00 Fair CLR 75.2 39.2 27% 77 29.68 0.0
04 10:35 Vrbl 5 10.00 Fair CLR 73.4 39.2 29% 29.68 0.0
04 10:15 Vrbl 5 10.00 Fair CLR 71.6 41 33% 29.69 0.0
04 09:55 Vrbl 3 10.00 Fair CLR 69.8 41 35% 29.69 0.0
04 09:35 NW 7 10.00 Fair CLR 66.2 39.2 37% 29.69 0.0
04 09:15 NW 8 10.00 Fair CLR 64.4 39.2 40% 29.7 0.0
04 08:55 NW 8 10.00 Fair CLR 60.8 39.2 45% 29.7 0.0
04 08:35 NW 8 10.00 Fair CLR 57.2 39.2 51% 29.71 0.0
04 08:15 N 6 10.00 Fair CLR 53.6 39.2 58% 29.7 0.0
04 07:55 Vrbl 1 10.00 Fair CLR 50 39.2 67% 29.7 0.0
04 07:35 NW 12 10.00 Fair CLR 46.4 37.4 71% 42 29.7 0.0
04 06:55 NW 14 10.00 Fair CLR 42.8 37.4 54 38.5 81% 36 29.68 0.0
04 06:35 NW 16 10.00 Fair CLR 44.6 37.4 76% 38 29.68 0.0
04 06:15 NW 8 10.00 Fair CLR 42.8 39.2 87% 39 29.68 0.0
04 05:55 NW 6 10.00 Fair CLR 41 37.4 87% 38 29.68 0.0
04 05:35 SW 6 10.00 Fair CLR 39.2 37.4 93% 36 29.68 0.0
04 05:15 SW 9 10.00 Fair CLR 39.2 37.4 93% 34 29.68 0.0
04 04:55 SW 5 10.00 Fair CLR 42.8 35.6 76% 41 29.68 0.0
04 04:15 SW 6 10.00 Fair CLR 44.6 35.6 71% 42 29.68 0.0
04 03:55 W 7 10.00 Fair CLR 42.8 35.6 76% 39 29.69 0.0
04 03:35 W 5 10.00 Fair CLR 46.4 35.6 66% 45 29.7 0.0
04 03:15 SW 6 10.00 Fair CLR 46.4 33.8 62% 44 29.71 0.0
04 02:55 SW 5 10.00 Fair CLR 46.4 33.8 62% 45 29.71 0.0
04 02:35 E 2 10.00 Fair CLR 50 35.6 58% 29.72 0.0
04 02:15 NE 6 10.00 Fair CLR 51.8 35.6 54% 29.73 0.0
04 01:55 E 5 10.00 Fair CLR 51.8 35.6 54% 29.73 0.0
04 01:35 E 3 10.00 Fair CLR 51.8 35.6 54% 29.74 0.0
04 01:07 NE 7 10.00 Fair CLR 53.6 35.6 51% 29.74 0.0
04 00:55 E 6 10.00 Fair CLR 53.6 35.6 78.8 48.4 51% 29.74 0.0
04 00:35 N 9 10.00 Fair CLR 50 35.6 58% 47 29.75 0.0
04 00:15 NE 6 10.00 Fair CLR 51.8 35.6 54% 29.76 0.0
03 23:55 SE 2 10.00 Fair CLR 53.6 35.6 51% 29.76 0.0
03 23:35 E 7 10.00 Fair CLR 57.2 35.6 44% 29.76 0.0
03 23:15 SE 7 10.00 Fair CLR 59 35.6 42% 29.77 0.0
03 22:55 E 9 10.00 Fair CLR 59 35.6 42% 29.76 0.0
03 22:35 E 9 10.00 Fair CLR 60.8 35.6 39% 29.77 0.0
03 22:15 E 10 10.00 Fair CLR 60.8 35.6 39% 29.77 0.0
03 21:55 E 10 10.00 Fair CLR 60.8 35.6 39% 29.76 0.0
03 21:35 E 9 10.00 Fair CLR 62.6 35.6 37% 29.76 0.0
03 21:15 E 9 10.00 Fair CLR 64.4 35.6 34% 29.76 0.0
03 20:55 E 9 10.00 Fair CLR 66.2 35.6 32% 29.76 0.0
03 20:35 E 9 10.00 Fair CLR 68 35.6 30% 29.75 0.0
03 20:15 NE 9 10.00 Fair CLR 69.8 35.6 29% 29.76 0.0
03 19:55 NE 12 10.00 Fair CLR 73.4 35.6 25% 29.76 0.0
03 19:35 NE 10 10.00 Fair CLR 75.2 35.6 24% 76 29.76 0.0
03 19:15 NE 12 10.00 Fair CLR 75.2 33.8 22% 76 29.76 0.0
03 18:55 NE 9 10.00 Fair CLR 78.8 33.8 80.2 75.6 20% 78 29.77 0.0
03 18:35 N 3 10.00 Fair CLR 78.8 32 18% 78 29.78 0.0
03 18:15 SE 3 10.00 Fair CLR 78.8 32 18% 78 29.78 0.0
03 17:55 NE 6 10.00 Fair CLR 78.8 32 18% 78 29.78 0.0
03 17:35 E 5 10.00 Fair CLR 78.8 32 18% 78 29.78 0.0
03 17:15 Vrbl 2 10.00 Fair CLR 78.8 32 18% 78 29.78 0.0
03 16:55 Vrbl 7 10.00 Fair CLR 78.8 32 18% 78 29.79 0.0
03 16:35 Vrbl 6 10.00 Fair CLR 78.8 32 18% 78 29.8 0.0
03 16:15 Vrbl 5 10.00 Fair CLR 78.8 30.2 17% 78 29.81 0.0
03 15:55 Vrbl 3 10.00 Fair CLR 78.8 30.2 17% 78 29.82 0.0
03 15:35 S 8 10.00 Fair CLR 78.8 30.2 17% 78 29.83 0.0
03 15:15 SE 8 10.00 Fair CLR 78.8 32 18% 78 29.83 0.0
03 14:55 SE 12 10.00 Fair CLR 78.8 32 18% 78 29.84 0.0
03 14:35 E 13 G 18 10.00 Fair CLR 78.8 33.8 20% 78 29.85 0.0
03 14:15 E 10 10.00 Fair CLR 78.8 33.8 20% 78 29.85 0.0
03 13:55 NE 16 G 23 10.00 Fair CLR 78.8 33.8 20% 78 29.86 0.0
03 13:35 E 15 G 21 10.00 Fair CLR 77 33.8 21% 77 29.88 0.0
03 13:15 NE 16 G 22 10.00 Fair CLR 78.8 35.6 21% 78 29.89 0.0
03 12:55 NE 16 G 21 10.00 Fair CLR 77 35.6 77.4 39 22% 77 29.9 0.0
03 12:35 E 13 G 20 10.00 Fair CLR 75.2 35.6 24% 76 29.92 0.0
03 12:15 E 16 G 20 10.00 Fair CLR 73.4 33.8 23% 29.92 0.0
03 11:55 E 14 G 21 10.00 Fair CLR 73.4 33.8 23% 29.93 0.0
03 11:35 E 14 10.00 Fair CLR 69.8 35.6 29% 29.93 0.0
03 11:15 NE 14 10.00 Fair CLR 68 35.6 30% 29.94 0.0
03 10:55 E 13 10.00 Fair CLR 68 33.8 28% 29.94 0.0
03 10:35 NE 13 10.00 Fair CLR 64.4 33.8 32% 29.94 0.0
03 10:15 N 10 10.00 Fair CLR 64.4 32 30% 29.95 0.0
03 09:55 N 9 10.00 Fair CLR 62.6 30.2 30% 29.95 0.0
03 09:35 NE 6 10.00 Fair CLR 62.6 28.4 27% 29.95 0.0
03 09:15 NW 6 10.00 Fair CLR 60.8 30.2 31% 29.94 0.0
03 08:55 NW 8 10.00 Fair CLR 59 30.2 34% 29.94 0.0
03 08:35 Vrbl 2 10.00 Fair CLR 53.6 33.8 47% 29.94 0.0
03 08:15 SW 5 10.00 Fair CLR 50 33.8 54% 49 29.93 0.0
03 07:35 SW 3 10.00 Fair CLR 42.8 32 66% 29.93 0.0
03 07:15 W 2 10.00 Fair CLR 39.2 30.2 70% 29.92 0.0
03 06:55 NW 8 10.00 Fair CLR 41 30.2 53.8 40.5 66% 36 29.92 0.0
03 06:35 NW 8 10.00 Fair CLR 42.8 30.2 61% 39 29.91 0.0
03 06:15 NW 9 10.00 Fair CLR 46.4 30.2 53% 42 29.91 0.0
03 05:55 SW 10 10.00 Fair CLR 44.6 32 61% 40 29.9 0.0
03 05:35 SW 10 10.00 Fair CLR 46.4 32 57% 42 29.9 0.0
03 05:15 SW 13 10.00 Fair CLR 48.2 32 54% 43 29.9 0.0
03 04:55 SW 12 10.00 Fair CLR 46.4 32 57% 42 29.91 0.0
03 04:35 SW 13 10.00 Fair CLR 44.6 30.2 57% 39 29.92 0.0
03 04:15 SW 12 10.00 Fair CLR 44.6 30.2 57% 39 29.92 0.0
03 03:55 SW 13 10.00 Fair CLR 44.6 30.2 57% 39 29.92 0.0
03 03:35 SW 12 10.00 Fair CLR 42.8 32 66% 37 29.93 0.0
03 03:15 SW 10 10.00 Fair CLR 44.6 30.2 57% 40 29.93 0.0
03 02:55 SW 12 10.00 Fair CLR 46.4 32 57% 42 29.94 0.0
03 02:35 SW 12 10.00 Fair CLR 48.2 32 54% 44 29.94 0.0
03 02:15 SW 15 10.00 Fair CLR 48.2 32 54% 43 29.94 0.0
03 01:55 SW 10 10.00 Fair CLR 48.2 32 54% 44 29.95 0.0
03 01:35 SW 10 10.00 Fair CLR 50 33.8 54% 46 29.95 0.0
03 01:15 SW 16 10.00 Fair CLR 51.8 33.8 50% 29.95 0.0
03 00:55 SW 9 10.00 Fair CLR 53.6 33.8 73.6 49.8 47% 29.96 0.0
03 00:35 SW 12 10.00 Fair CLR 51.8 33.8 50% 29.96 0.0
03 00:15 SW 12 10.00 Fair CLR 53.6 33.8 47% 29.95 0.0
02 23:55 SW 12 10.00 Fair CLR 55.4 33.8 44% 29.96 0.0
02 23:35 S 13 10.00 Fair CLR 55.4 35.6 47% 29.96 0.0
02 23:15 S 10 10.00 Fair CLR 55.4 35.6 47% 29.96 0.0
02 22:55 S 12 10.00 Fair CLR 57.2 33.8 41% 29.97 0.0
02 22:35 S 9 10.00 Fair CLR 55.4 33.8 44% 29.97 0.0
02 22:15 S 8 10.00 Fair CLR 57.2 35.6 44% 29.97 0.0
02 21:55 S 8 10.00 Fair CLR 57.2 35.6 44% 29.97 0.0
02 21:35 S 7 10.00 Fair CLR 60.8 33.8 36% 29.97 0.0
02 21:15 S 9 10.00 Fair CLR 62.6 33.8 34% 29.97 0.0
02 20:55 S 10 10.00 Fair CLR 64.4 33.8 32% 29.96 0.0
02 20:35 S 9 10.00 Fair CLR 66.2 32 28% 29.96 0.0
02 20:15 S 5 10.00 Fair CLR 68 33.8 28% 29.96 0.0
02 19:55 S 3 10.00 Fair CLR 71.6 32 23% 29.96 0.0
02 19:35 S 7 10.00 Fair CLR 71.6 32 23% 29.97 0.0
02 19:15 S 7 10.00 Fair CLR 73.4 32 22% 29.97 0.0
02 18:55 SW 6 10.00 Fair CLR 73.4 30.2 74.8 62.6 20% 29.98 0.0
02 18:35 SW 9 G 17 10.00 Fair CLR 73.4 30.2 20% 29.98 0.0
02 18:15 W 8 10.00 Fair CLR 73.4 30.2 20% 29.99 0.0
02 17:55 SW 9 G 17 10.00 Fair CLR 73.4 30.2 20% 30 0.0
02 17:35 SW 13 10.00 Fair CLR 75.2 30.2 19% 76 30 0.0
02 17:15 Vrbl 6 G 20 10.00 Fair CLR 73.4 30.2 20% 30.01 0.0
02 16:55 SW 10 G 22 10.00 Fair CLR 71.6 30.2 22% 30.02 0.0
02 16:35 W 12 G 18 10.00 Fair CLR 71.6 30.2 22% 30.04 0.0
02 16:15 W 10 10.00 Light Drizzle CLR 71.6 30.2 22% 30.05 0.0
02 15:55 SW 8 G 21 10.00 Fair CLR 71.6 32 23% 30.06 0.0
02 15:35 SW 12 G 21 10.00 Fair CLR 69.8 30.2 23% 30.07 0.0
02 15:15 SW 10 G 17 10.00 Fair CLR 69.8 32 25% 30.08 0.0
02 14:55 SW 12 G 21 10.00 Fair CLR 68 32 26% 30.09 0.0
02 14:35 S 9 10.00 Fair CLR 68 32 26% 30.1 0.0
02 14:15 W 12 10.00 Fair CLR 66.2 32 28% 30.11 0.0
02 13:55 SW 12 10.00 Fair CLR 68 32 26% 30.12 0.0
02 13:35 Vrbl 7 G 21 10.00 Fair CLR 66.2 32 28% 30.13 0.0
02 13:15 SW 7 G 16 10.00 Fair CLR 64.4 32 30% 30.14 0.0
02 12:55 SE 7 G 16 10.00 Fair CLR 62.6 32 64.4 28 32% 30.15 0.0
02 12:35 Vrbl 6 10.00 Fair CLR 60.8 32 34% 30.16 0.0
02 12:15 SW 10 10.00 Fair CLR 60.8 32 34% 30.17 0.0
02 11:55 S 10 10.00 Fair CLR 59 32 36% 30.17 0.0
02 11:35 S 12 10.00 Fair CLR 60.8 32 34% 30.18 0.0
02 11:15 S 7 10.00 Fair CLR 57.2 32 39% 30.18 0.0
02 10:55 S 7 10.00 Fair CLR 57.2 32 39% 30.19 0.0
02 10:35 S 9 10.00 Fair CLR 55.4 32 41% 30.19 0.0
02 10:15 S 7 10.00 Fair CLR 55.4 32 41% 30.19 0.0
02 09:55 S 9 10.00 Fair CLR 51.8 32 47% 30.19 0.0
02 09:35 S 6 10.00 Fair CLR 50 35.6 58% 48 30.2 0.0
02 09:15 S 6 10.00 Fair CLR 44.6 35.6 71% 42 30.2 0.0
02 08:55 S 5 10.00 Fair CLR 42.8 35.6 76% 41 30.2 0.0
02 08:35 S 3 10.00 Fair CLR 41 35.6 81% 30.2 0.0
02 08:15 SW 2 10.00 Fair CLR 37.4 37.4 100% 30.2 0.0
02 07:55 Calm 10.00 Fair CLR 33.8 33.8 100% 30.2 0.0
02 07:35 SW 2 10.00 Fair CLR 30.2 30.2 100% 30.19 0.0
02 07:16 Vrbl 1 10.00 Fair CLR 30.2 30.2 100% 30.19 0.0
02 06:55 N 3 10.00 Fair CLR 30.2 30.2 47.5 30.9 100% 30.19 0.0
02 06:35 NE 3 10.00 Fair CLR 32 32 100% 30.18 0.0
02 06:15 NE 3 10.00 Fair CLR 32 32 100% 30.18 0.0
02 05:55 N 3 10.00 Fair CLR 32 32 100% 30.18 0.0
02 05:35 N 2 10.00 Fair CLR 33.8 32 93% 30.18 0.0
02 05:15 N 3 10.00 Fair CLR 33.8 33.8 100% 30.18 0.0
02 04:55 NE 2 10.00 Fair CLR 32 32 100% 30.18 0.0
02 04:35 NE 5 10.00 Fair CLR 33.8 33.8 100% 30 30.18 0.0
02 04:15 NE 7 10.00 Fair CLR 37.4 33.8 87% 33 30.18 0.0
02 03:55 N 5 10.00 Fair CLR 35.6 33.8 93% 32 30.17 0.0
02 03:36 N 7 10.00 Partly Cloudy SCT090 35.6 33.8 93% 31 30.17 0.0
02 03:15 N 7 10.00 Mostly Cloudy FEW075 BKN090 35.6 33.8 93% 31 30.17 0.0
02 02:55 N 8 10.00 Mostly Cloudy SCT070 BKN090 37.4 33.8 87% 32 30.16 0.0
02 02:15 N 6 10.00 Overcast FEW060 SCT075 OVC090 39.2 33.8 81% 36 30.16 0.0
02 01:55 N 7 10.00 Overcast SCT070 OVC090 41 33.8 76% 37 30.17 0.0
02 01:35 N 5 10.00 Overcast FEW060 BKN070 OVC100 42.8 33.8 71% 41 30.16 0.0
02 01:15 Vrbl 2 10.00 Overcast SCT060 BKN080 OVC110 46.4 33.8 62% 30.16 0.0
02 00:55 Vrbl 2 10.00 Overcast BKN070 OVC100 46.4 33.8 63 44.2 62% 30.15 0.0
02 00:35 SE 5 10.00 Overcast SCT075 OVC100 48.2 33.8 58% 47 30.15 0.0
02 00:15 SE 5 10.00 Overcast SCT075 OVC100 48.2 32 54% 47 30.15 0.0
01 23:55 SE 7 10.00 Overcast BKN090 OVC110 48.2 32 54% 46 30.13 0.0
Date Time (cdt) Wind (mph) Vis. (mi.) Weather Sky Cond. Air Dwpt Max. Min. Relative Humidity Wind Chill (°F) Heat Index (°F) altimeter (in) sea level (mb) 1 hr 3 hr 6 hr
6 hour
Temperature (ºF) Pressure Precipitation (in)